Time;durP1;ratioP1;P1;durP2;ratioP2;P2;SDS_P1;SDS_P2;PMS_P1;PMS_P2;Temp;Humidity;BMP_temperature;BMP_pressure;BME280_temperature;BME280_humidity;BME280_pressure;Samples;Min_cycle;Max_cycle;Signal;HPM_P1;HPM_P2
2022/10/11 00:02:17;;;;;;;18.47;8.80;;;17.00;1.00;;;;;;5081010;28;20172;-73
2022/10/11 00:04:42;;;;;;;14.80;9.33;;;17.00;1.00;;;;;;5086035;28;20279;-72
2022/10/11 00:07:08;;;;;;;15.90;8.90;;;17.00;1.00;;;;;;5080028;28;20592;-72
2022/10/11 00:09:34;;;;;;;19.80;9.70;;;17.00;1.00;;;;;;5088302;28;20206;-73
2022/10/11 00:11:59;;;;;;;22.10;10.40;;;17.00;1.00;;;;;;5088091;28;20229;-73
2022/10/11 00:14:26;;;;;;;20.17;10.47;;;17.00;1.00;;;;;;5085165;28;20261;-74
2022/10/11 00:16:52;;;;;;;22.30;9.90;;;17.00;1.00;;;;;;5079912;28;20548;-74
2022/10/11 00:19:17;;;;;;;21.00;10.07;;;16.90;1.00;;;;;;5083922;28;20483;-73
2022/10/11 00:21:43;;;;;;;16.97;9.03;;;17.00;1.00;;;;;;5081643;28;20255;-71
2022/10/11 00:24:09;;;;;;;16.57;9.60;;;16.90;1.00;;;;;;5081352;28;20179;-71
2022/10/11 00:26:35;;;;;;;17.20;9.57;;;16.90;1.00;;;;;;5080949;28;20612;-72
2022/10/11 00:29:00;;;;;;;22.57;10.00;;;16.90;1.00;;;;;;5087232;28;20426;-72
2022/10/11 00:31:26;;;;;;;13.80;9.63;;;16.90;1.00;;;;;;5083232;28;20198;-73
2022/10/11 00:33:53;;;;;;;19.07;10.23;;;16.90;1.00;;;;;;5080480;28;20184;-72
2022/10/11 00:36:19;;;;;;;21.00;10.07;;;16.90;1.00;;;;;;5081288;28;20210;-72
2022/10/11 00:38:45;;;;;;;18.80;10.33;;;16.90;1.00;;;;;;5083965;28;20804;-72
2022/10/11 00:41:12;;;;;;;17.23;9.70;;;16.90;1.00;;;;;;5084720;28;20484;-72
2022/10/11 00:43:37;;;;;;;18.50;11.63;;;16.90;1.00;;;;;;5082428;28;20190;-73
2022/10/11 00:46:23;;;;;;;22.50;11.40;;;16.90;1.00;;;;;;5076701;28;20421;-72
2022/10/11 00:49:13;;;;;;;19.17;10.67;;;16.90;1.00;;;;;;5081637;28;20675;-73
2022/10/11 00:51:52;;;;;;;27.03;11.87;;;16.80;1.00;;;;;;5067555;28;20434;-72
2022/10/11 00:54:22;;;;;;;18.60;10.30;;;16.80;1.00;;;;;;5082636;28;20418;-73
2022/10/11 00:56:52;;;;;;;26.43;11.63;;;16.80;1.00;;;;;;5086741;28;20418;-73
2022/10/11 00:59:22;;;;;;;19.73;10.97;;;16.70;1.00;;;;;;5084305;28;20461;-72
2022/10/11 01:01:48;;;;;;;23.23;10.30;;;16.80;1.00;;;;;;5081459;28;20513;-72
2022/10/11 01:04:14;;;;;;;19.37;10.10;;;16.70;1.00;;;;;;5086874;28;21031;-70
2022/10/11 01:06:40;;;;;;;17.63;10.60;;;16.70;1.00;;;;;;5086471;28;20210;-72
2022/10/11 01:09:06;;;;;;;16.60;10.03;;;16.60;1.00;;;;;;5086508;28;20688;-71
2022/10/11 01:11:34;;;;;;;26.00;11.37;;;16.60;1.00;;;;;;5085131;28;20911;-71
2022/10/11 01:14:14;;;;;;;19.03;10.80;;;16.50;1.00;;;;;;5082767;28;20755;-73
2022/10/11 01:16:54;;;;;;;17.37;10.80;;;16.50;1.00;;;;;;5088225;28;20471;-71
2022/10/11 01:19:34;;;;;;;18.00;10.73;;;16.50;1.00;;;;;;5085379;28;20445;-71
2022/10/11 01:22:00;;;;;;;19.23;10.67;;;16.50;1.00;;;;;;5083436;28;20429;-70
2022/10/11 01:24:50;;;;;;;20.87;10.90;;;16.50;1.00;;;;;;5084670;28;20478;-72
2022/10/11 01:27:47;;;;;;;22.83;10.70;;;16.50;1.00;;;;;;5083429;28;20231;-72
2022/10/11 01:30:22;;;;;;;19.40;10.10;;;16.50;1.00;;;;;;5085964;28;20560;-72
2022/10/11 01:32:54;;;;;;;20.67;10.57;;;16.40;1.00;;;;;;5083348;28;21284;-72
2022/10/11 01:35:57;;;;;;;19.40;9.87;;;16.40;2.00;;;;;;5087183;28;20453;-72
2022/10/11 01:38:43;;;;;;;21.03;9.50;;;16.40;1.50;;;;;;5082455;28;20783;-72
2022/10/11 01:41:14;;;;;;;22.40;9.83;;;16.40;1.50;;;;;;5084700;28;20439;-72
2022/10/11 01:43:40;;;;;;;24.00;10.10;;;16.40;2.30;;;;;;5088749;28;20808;-72
2022/10/11 01:46:08;;;;;;;18.37;9.07;;;16.40;1.00;;;;;;5078868;28;20434;-72
2022/10/11 01:48:46;;;;;;;16.43;8.80;;;16.40;1.00;;;;;;5079445;28;20457;-72
2022/10/11 01:51:12;;;;;;;22.07;9.97;;;16.40;1.00;;;;;;5084496;28;20418;-72
2022/10/11 01:54:12;;;;;;;24.23;9.10;;;16.40;1.00;;;;;;5082099;28;20925;-69
2022/10/11 01:56:46;;;;;;;19.63;9.50;;;16.40;1.00;;;;;;5087884;28;20985;-72
2022/10/11 01:59:20;;;;;;;25.10;9.83;;;16.30;1.00;;;;;;5085855;28;20453;-72
2022/10/11 02:02:03;;;;;;;14.83;9.20;;;16.30;1.00;;;;;;5087102;28;20418;-73
2022/10/11 02:04:38;;;;;;;24.83;9.80;;;16.30;1.00;;;;;;5086635;28;20482;-72
2022/10/11 02:07:15;;;;;;;20.13;9.77;;;16.30;1.00;;;;;;5082503;28;20564;-73
2022/10/11 02:09:51;;;;;;;18.53;9.83;;;16.40;1.00;;;;;;5091418;28;20444;-72
2022/10/11 02:12:25;;;;;;;19.97;10.00;;;16.30;1.00;;;;;;5088117;28;20474;-72
2022/10/11 02:14:55;;;;;;;19.33;10.07;;;16.30;1.00;;;;;;5091247;28;20453;-72
2022/10/11 02:17:24;;;;;;;21.47;9.23;;;16.20;1.00;;;;;;5085140;28;20437;-72
2022/10/11 02:19:53;;;;;;;17.33;10.43;;;16.10;1.00;;;;;;5091080;28;20525;-70
2022/10/11 02:22:23;;;;;;;22.97;10.27;;;16.10;1.00;;;;;;5085703;28;20432;-72
2022/10/11 02:24:53;;;;;;;24.63;11.87;;;16.10;1.00;;;;;;5083951;28;20423;-72
2022/10/11 02:27:23;;;;;;;15.23;10.00;;;16.00;1.00;;;;;;5077700;28;20461;-72
2022/10/11 02:29:52;;;;;;;22.70;10.97;;;15.90;1.00;;;;;;5089342;28;20461;-73
2022/10/11 02:32:19;;;;;;;18.53;11.40;;;15.90;1.00;;;;;;5082216;28;20418;-70
2022/10/11 02:34:54;;;;;;;21.93;10.10;;;15.80;1.00;;;;;;5080366;28;20434;-73
2022/10/11 02:37:44;;;;;;;16.70;9.33;;;15.80;1.00;;;;;;5080136;28;20437;-73
2022/10/11 02:40:14;;;;;;;25.37;11.03;;;15.70;1.00;;;;;;5084616;28;20441;-72
2022/10/11 02:43:02;;;;;;;21.43;11.10;;;15.70;1.00;;;;;;5089221;28;20425;-72
2022/10/11 02:45:36;;;;;;;22.80;10.90;;;15.60;1.00;;;;;;5087105;28;20424;-72
2022/10/11 02:48:03;;;;;;;22.70;10.60;;;15.70;1.00;;;;;;5084732;28;20466;-72
2022/10/11 02:50:29;;;;;;;16.80;9.70;;;15.70;1.00;;;;;;5082589;28;20971;-72
2022/10/11 02:52:54;;;;;;;19.33;10.63;;;15.70;1.00;;;;;;5081782;28;20434;-72
2022/10/11 02:55:20;;;;;;;18.60;9.70;;;15.70;1.00;;;;;;5086974;28;20251;-72
2022/10/11 02:57:46;;;;;;;21.10;10.40;;;15.70;1.00;;;;;;5089719;28;20204;-72
2022/10/11 03:00:12;;;;;;;19.40;10.83;;;15.60;1.00;;;;;;5079684;28;20231;-71
2022/10/11 03:02:37;;;;;;;20.87;11.10;;;15.50;1.00;;;;;;5087160;28;20210;-71
2022/10/11 03:05:03;;;;;;;25.00;11.70;;;15.50;1.00;;;;;;5075563;28;20951;-72
2022/10/11 03:07:29;;;;;;;19.40;11.23;;;15.40;1.00;;;;;;5086024;28;20199;-73
2022/10/11 03:09:54;;;;;;;23.47;12.53;;;15.50;1.00;;;;;;5086220;28;20204;-72
2022/10/11 03:12:20;;;;;;;19.97;11.90;;;15.50;1.00;;;;;;5089877;28;20159;-72
2022/10/11 03:14:46;;;;;;;22.77;13.70;;;15.50;1.00;;;;;;5081341;28;20207;-72
2022/10/11 03:17:11;;;;;;;30.47;13.10;;;15.50;1.00;;;;;;5087524;28;20175;-69
2022/10/11 03:19:37;;;;;;;26.57;13.27;;;15.50;1.00;;;;;;5085334;28;20203;-72
2022/10/11 03:22:02;;;;;;;19.60;12.97;;;15.40;1.00;;;;;;5084647;28;20179;-73
2022/10/11 03:24:28;;;;;;;22.87;14.10;;;15.40;1.00;;;;;;5085957;28;20658;-72
2022/10/11 03:26:53;;;;;;;28.37;14.63;;;15.30;1.00;;;;;;5086300;28;20192;-72
2022/10/11 03:29:19;;;;;;;20.90;14.03;;;15.40;1.00;;;;;;5081887;28;20212;-72
2022/10/11 03:31:44;;;;;;;27.70;15.77;;;15.30;1.00;;;;;;5082621;28;20177;-73
2022/10/11 03:34:10;;;;;;;31.27;14.03;;;15.30;1.00;;;;;;5085898;28;20175;-72
2022/10/11 03:36:35;;;;;;;22.97;14.37;;;15.30;1.00;;;;;;5084759;28;20313;-73
2022/10/11 03:39:02;;;;;;;26.37;13.80;;;15.30;1.00;;;;;;5088450;28;20683;-72
2022/10/11 03:41:28;;;;;;;30.33;14.20;;;15.30;1.00;;;;;;5088639;28;20164;-72
2022/10/11 03:43:54;;;;;;;23.50;14.20;;;15.40;1.00;;;;;;5089428;28;20919;-72
2022/10/11 03:46:19;;;;;;;24.03;14.23;;;15.40;1.00;;;;;;5085970;28;20453;-73
2022/10/11 03:48:45;;;;;;;24.20;14.47;;;15.40;1.00;;;;;;5080341;28;20740;-72
2022/10/11 03:51:12;;;;;;;27.60;14.27;;;15.40;1.00;;;;;;5081617;28;20183;-73
2022/10/11 03:53:37;;;;;;;20.77;13.80;;;15.40;1.00;;;;;;5074332;28;20217;-71
2022/10/11 03:56:03;;;;;;;20.87;14.07;;;15.40;1.00;;;;;;5079605;28;20795;-72
2022/10/11 03:58:29;;;;;;;25.90;13.50;;;15.40;1.00;;;;;;5085590;28;20180;-70
2022/10/11 04:00:55;;;;;;;27.63;14.60;;;15.40;1.00;;;;;;5085193;28;20213;-72
2022/10/11 04:03:20;;;;;;;28.23;14.57;;;15.30;1.00;;;;;;5082996;28;20699;-75
2022/10/11 04:05:46;;;;;;;23.50;13.97;;;15.30;1.00;;;;;;5087774;28;20215;-72
2022/10/11 04:08:11;;;;;;;25.20;14.37;;;15.30;1.00;;;;;;5082806;28;20325;-72
2022/10/11 04:10:37;;;;;;;27.10;14.10;;;15.30;1.00;;;;;;5088365;28;20204;-72
2022/10/11 04:13:02;;;;;;;23.30;13.93;;;15.30;1.00;;;;;;5083724;28;20185;-72
2022/10/11 04:15:28;;;;;;;20.07;14.43;;;15.20;1.00;;;;;;5084389;28;20172;-72
2022/10/11 04:17:53;;;;;;;21.57;13.53;;;15.20;1.00;;;;;;5085459;28;20252;-72
2022/10/11 04:20:19;;;;;;;25.90;14.53;;;15.10;1.00;;;;;;5096410;28;20279;-73
2022/10/11 04:22:45;;;;;;;20.30;13.70;;;15.00;1.00;;;;;;5082029;28;20752;-72
2022/10/11 04:25:10;;;;;;;30.03;13.93;;;15.10;1.00;;;;;;5087006;28;20233;-71
2022/10/11 04:27:36;;;;;;;24.37;13.57;;;15.00;1.00;;;;;;5087691;28;20199;-73
2022/10/11 04:30:02;;;;;;;26.80;13.33;;;15.00;1.00;;;;;;5087165;28;20207;-72
2022/10/11 04:32:28;;;;;;;24.13;13.43;;;15.20;1.00;;;;;;5079973;28;20669;-73
2022/10/11 04:34:53;;;;;;;22.43;13.13;;;15.00;1.00;;;;;;5083496;28;20434;-72
2022/10/11 04:37:19;;;;;;;23.00;13.20;;;15.00;1.00;;;;;;5084418;28;20291;-72
2022/10/11 04:39:44;;;;;;;23.00;12.87;;;15.00;1.00;;;;;;5089025;28;20665;-73
2022/10/11 04:42:10;;;;;;;20.60;13.63;;;15.00;1.00;;;;;;5087196;28;20267;-72
2022/10/11 04:44:36;;;;;;;21.27;13.03;;;14.90;1.00;;;;;;5089004;28;20271;-72
2022/10/11 04:47:01;;;;;;;22.73;11.50;;;15.00;1.00;;;;;;5083628;28;20314;-72
2022/10/11 04:49:27;;;;;;;20.90;12.63;;;14.90;1.00;;;;;;5078787;28;20188;-73
2022/10/11 04:51:53;;;;;;;21.20;12.37;;;14.80;1.00;;;;;;5082658;28;20203;-72
2022/10/11 04:54:18;;;;;;;16.77;11.50;;;14.80;1.00;;;;;;5087917;28;20232;-71
2022/10/11 04:56:44;;;;;;;14.87;10.10;;;14.80;1.00;;;;;;5084882;28;20180;-72
2022/10/11 04:59:09;;;;;;;17.60;10.93;;;14.80;1.00;;;;;;5086602;28;20311;-71
2022/10/11 05:01:35;;;;;;;22.83;10.50;;;14.80;1.00;;;;;;5083368;28;20305;-72
2022/10/11 05:04:01;;;;;;;19.83;9.63;;;14.80;1.00;;;;;;5088034;28;20214;-72
2022/10/11 05:06:26;;;;;;;18.17;9.10;;;14.70;1.00;;;;;;5085410;28;20188;-72
2022/10/11 05:08:52;;;;;;;16.80;8.67;;;14.70;1.00;;;;;;5088346;28;20180;-72
2022/10/11 05:11:18;;;;;;;19.57;7.97;;;14.70;1.00;;;;;;5086006;28;20660;-70
2022/10/11 05:13:45;;;;;;;15.60;8.43;;;14.60;1.00;;;;;;5087257;28;20638;-72
2022/10/11 05:16:11;;;;;;;14.97;7.87;;;14.60;1.00;;;;;;5092920;28;20258;-72
2022/10/11 05:18:38;;;;;;;14.30;7.80;;;14.60;1.00;;;;;;5080883;28;20430;-71
2022/10/11 05:21:07;;;;;;;12.80;8.23;;;14.50;1.00;;;;;;5087276;28;20477;-71
2022/10/11 05:23:34;;;;;;;13.83;7.70;;;14.50;1.00;;;;;;5079707;28;20433;-70
2022/10/11 05:26:00;;;;;;;12.33;7.17;;;14.40;1.00;;;;;;5080572;28;20536;-72
2022/10/11 05:28:26;;;;;;;16.70;7.50;;;14.40;1.00;;;;;;5088810;28;20545;-70
2022/10/11 05:30:52;;;;;;;12.87;7.17;;;14.40;1.00;;;;;;5092345;28;20207;-77
2022/10/11 05:33:18;;;;;;;14.53;6.60;;;14.30;1.00;;;;;;5090171;28;20212;-73
2022/10/11 05:35:43;;;;;;;13.93;5.60;;;14.30;1.00;;;;;;5091044;28;20433;-72
2022/10/11 05:38:09;;;;;;;12.57;5.53;;;14.20;1.00;;;;;;5081774;28;20283;-72
2022/10/11 05:40:36;;;;;;;9.17;4.93;;;14.10;1.00;;;;;;5089841;28;20211;-73
2022/10/11 05:43:02;;;;;;;10.90;5.00;;;14.10;1.00;;;;;;5082523;28;20188;-70
2022/10/11 05:45:27;;;;;;;11.93;5.10;;;14.10;1.00;;;;;;5086614;28;20438;-70
2022/10/11 05:47:53;;;;;;;9.63;4.67;;;14.00;1.00;;;;;;5086864;28;20203;-72
2022/10/11 05:50:18;;;;;;;10.93;4.37;;;14.00;1.00;;;;;;5091212;28;20203;-73
2022/10/11 05:52:44;;;;;;;7.17;3.87;;;14.00;1.00;;;;;;5085324;28;20630;-71
2022/10/11 05:55:09;;;;;;;14.10;4.27;;;14.00;1.00;;;;;;5086863;28;20263;-74
2022/10/11 05:57:35;;;;;;;8.67;3.80;;;14.00;1.00;;;;;;5086234;28;20646;-77
2022/10/11 06:00:01;;;;;;;11.23;3.87;;;15.70;1.00;;;;;;5079909;28;20648;-76
2022/10/11 06:02:26;;;;;;;8.00;4.30;;;14.10;1.00;;;;;;5077831;28;20184;-78
2022/10/11 06:04:52;;;;;;;6.80;3.97;;;14.20;1.00;;;;;;5086217;28;20214;-77
2022/10/11 06:07:17;;;;;;;7.77;3.50;;;14.30;1.00;;;;;;5087033;28;20231;-74
2022/10/11 06:09:43;;;;;;;11.03;4.13;;;14.50;1.00;;;;;;5081615;28;20205;-76
2022/10/11 06:12:08;;;;;;;9.20;4.03;;;14.60;1.00;;;;;;5089088;28;20412;-78
2022/10/11 06:14:34;;;;;;;11.63;3.67;;;14.50;1.00;;;;;;5088978;28;20205;-80
2022/10/11 06:17:00;;;;;;;25.07;4.60;;;14.50;1.00;;;;;;5090440;28;20671;-78
2022/10/11 06:19:25;;;;;;;13.47;4.27;;;14.50;1.00;;;;;;5088274;28;20599;-76
2022/10/11 06:21:51;;;;;;;7.73;3.83;;;14.50;1.00;;;;;;5092075;28;20252;-77
2022/10/11 06:24:16;;;;;;;12.83;4.13;;;14.50;1.00;;;;;;5090160;28;20267;-75
2022/10/11 06:26:42;;;;;;;9.73;3.47;;;14.60;1.00;;;;;;5086806;28;20196;-72
2022/10/11 06:29:08;;;;;;;6.90;4.00;;;14.50;1.00;;;;;;5088545;28;20230;-72
2022/10/11 06:31:34;;;;;;;7.67;3.63;;;14.40;1.00;;;;;;5090766;28;20176;-72
2022/10/11 06:34:00;;;;;;;13.13;3.40;;;14.30;1.00;;;;;;5083079;28;20417;-72
2022/10/11 06:36:26;;;;;;;16.57;4.00;;;14.30;1.00;;;;;;5082028;28;20436;-73
2022/10/11 06:38:53;;;;;;;12.83;5.00;;;14.30;1.00;;;;;;5078912;28;20877;-76
2022/10/11 06:41:21;;;;;;;12.50;4.63;;;14.20;1.00;;;;;;5090655;28;20430;-72
2022/10/11 06:43:50;;;;;;;6.97;3.73;;;14.20;1.00;;;;;;5075879;28;20525;-73
2022/10/11 06:46:17;;;;;;;9.83;4.10;;;14.20;1.00;;;;;;5086002;28;20434;-75
2022/10/11 06:48:44;;;;;;;7.23;3.20;;;14.30;1.00;;;;;;5082181;28;20465;-73
2022/10/11 06:51:12;;;;;;;7.77;3.70;;;14.20;1.00;;;;;;5082580;28;20958;-74
2022/10/11 06:53:38;;;;;;;12.90;3.20;;;14.20;1.00;;;;;;5080792;28;20437;-73
2022/10/11 06:56:06;;;;;;;5.37;2.57;;;14.20;1.00;;;;;;5081835;28;20434;-80
2022/10/11 06:58:32;;;;;;;10.33;3.63;;;14.30;1.00;;;;;;5085807;28;20196;-74
2022/10/11 07:01:02;;;;;;;6.63;2.90;;;14.40;1.00;;;;;;5077155;28;20800;-73
2022/10/11 07:03:28;;;;;;;8.40;3.10;;;14.40;1.00;;;;;;5090287;28;20187;-75
2022/10/11 07:06:02;;;;;;;11.60;4.33;;;14.50;1.00;;;;;;5084067;28;20440;-74
2022/10/11 07:08:28;;;;;;;12.93;3.00;;;15.00;1.00;;;;;;5081720;28;20469;-74
2022/10/11 07:10:59;;;;;;;8.23;3.13;;;14.50;1.00;;;;;;5082180;28;20546;-75
2022/10/11 07:13:24;;;;;;;9.73;2.97;;;14.50;1.00;;;;;;5075623;28;20187;-74
2022/10/11 07:15:50;;;;;;;11.53;3.40;;;14.60;1.00;;;;;;5081884;28;20437;-73
2022/10/11 07:18:15;;;;;;;9.13;3.17;;;14.60;1.00;;;;;;5076134;28;20194;-75
2022/10/11 07:20:41;;;;;;;6.67;2.97;;;14.60;1.00;;;;;;5080108;28;20204;-74
2022/10/11 07:23:06;;;;;;;18.00;3.47;;;14.80;1.00;;;;;;5093014;28;20184;-75
2022/10/11 07:25:32;;;;;;;8.20;3.40;;;15.00;1.00;;;;;;5085008;28;20265;-75
2022/10/11 07:27:57;;;;;;;13.83;3.33;;;15.20;1.00;;;;;;5083211;28;20216;-75
2022/10/11 07:30:23;;;;;;;12.60;3.83;;;15.30;1.00;;;;;;5074099;28;20203;-75
2022/10/11 07:32:48;;;;;;;10.13;3.40;;;15.30;1.00;;;;;;5082041;28;20184;-75
2022/10/11 07:35:14;;;;;;;10.67;3.50;;;15.40;1.00;;;;;;5082412;28;20172;-72
2022/10/11 07:37:39;;;;;;;9.17;4.13;;;15.30;1.00;;;;;;5083318;28;20206;-72
2022/10/11 07:40:09;;;;;;;17.90;4.07;;;15.30;1.00;;;;;;5083558;28;20345;-76
2022/10/11 07:42:35;;;;;;;7.47;3.57;;;15.20;1.00;;;;;;5081527;28;20652;-75
2022/10/11 07:45:00;;;;;;;9.70;3.90;;;15.20;1.00;;;;;;5090149;28;20424;-73
2022/10/11 07:47:26;;;;;;;14.40;3.83;;;15.10;1.00;;;;;;5094775;28;20658;-76
2022/10/11 07:49:51;;;;;;;12.67;3.63;;;15.20;1.00;;;;;;5080948;28;20215;-75
2022/10/11 07:52:17;;;;;;;13.80;3.50;;;15.30;1.00;;;;;;5087158;28;20610;-73
2022/10/11 07:54:42;;;;;;;14.83;4.70;;;15.50;1.00;;;;;;5088316;28;20196;-73
2022/10/11 07:57:08;;;;;;;10.67;3.80;;;15.70;1.00;;;;;;5082104;28;20233;-73
2022/10/11 07:59:33;;;;;;;12.93;3.90;;;16.30;1.00;;;;;;5081422;28;20210;-73
2022/10/11 08:01:59;;;;;;;13.87;4.30;;;16.20;1.00;;;;;;5081997;28;20184;-73
2022/10/11 08:04:25;;;;;;;27.43;5.93;;;15.80;1.00;;;;;;5083294;28;20512;-73
2022/10/11 08:06:50;;;;;;;10.03;3.67;;;16.30;1.00;;;;;;5080342;28;20183;-77
2022/10/11 08:09:16;;;;;;;8.73;3.40;;;16.10;1.00;;;;;;5088886;28;20742;-73
2022/10/11 08:11:41;;;;;;;10.70;3.90;;;16.10;1.00;;;;;;5082184;28;20685;-77
2022/10/11 08:14:07;;;;;;;19.43;4.40;;;16.00;1.00;;;;;;5080121;28;20203;-74
2022/10/11 08:16:37;;;;;;;13.60;3.53;;;16.10;1.00;;;;;;5089964;28;20195;-73
2022/10/11 08:19:04;;;;;;;10.10;4.13;;;16.20;1.00;;;;;;5081062;28;20789;-76
2022/10/11 08:21:30;;;;;;;14.73;4.10;;;16.30;1.00;;;;;;5082343;28;20924;-74
2022/10/11 08:23:55;;;;;;;10.23;4.20;;;16.50;1.00;;;;;;5074162;28;20904;-72
2022/10/11 08:26:21;;;;;;;13.97;4.30;;;16.70;1.00;;;;;;5084953;28;20731;-73
2022/10/11 08:28:47;;;;;;;14.17;4.23;;;16.90;1.00;;;;;;5086805;28;20693;-75
2022/10/11 08:31:14;;;;;;;7.17;3.53;;;17.10;1.00;;;;;;5089950;28;20182;-74
2022/10/11 08:33:40;;;;;;;13.43;3.60;;;17.70;1.00;;;;;;5087036;28;20175;-74
2022/10/11 08:36:07;;;;;;;8.17;4.20;;;17.40;1.00;;;;;;5088541;28;20414;-74
2022/10/11 08:38:35;;;;;;;10.80;4.03;;;17.50;1.00;;;;;;5072895;28;20438;-73
2022/10/11 08:41:01;;;;;;;11.13;4.80;;;17.60;1.00;;;;;;5079704;28;20976;-78
2022/10/11 08:43:29;;;;;;;15.73;4.50;;;17.60;1.00;;;;;;5082609;28;20445;-75
2022/10/11 08:45:57;;;;;;;8.77;4.67;;;17.70;1.00;;;;;;5089182;28;20445;-74
2022/10/11 08:48:32;;;;;;;12.20;4.20;;;17.80;1.00;;;;;;5084726;28;20847;-74
2022/10/11 08:50:58;;;;;;;12.23;4.83;;;17.80;1.00;;;;;;5089455;28;20436;-73
2022/10/11 08:53:47;;;;;;;10.87;4.57;;;18.00;1.00;;;;;;5082685;28;20487;-74
2022/10/11 08:56:15;;;;;;;10.87;4.23;;;18.30;1.00;;;;;;5078068;28;20940;-74
2022/10/11 08:58:51;;;;;;;9.90;4.63;;;18.90;1.00;;;;;;5081181;28;20434;-74
2022/10/11 09:01:23;;;;;;;9.00;4.30;;;19.30;1.00;;;;;;5089102;28;20500;-73
2022/10/11 09:03:49;;;;;;;14.27;4.77;;;19.50;1.00;;;;;;5080916;28;20439;-72
2022/10/11 09:06:49;;;;;;;10.40;4.67;;;19.30;1.00;;;;;;5083711;28;20414;-72
2022/10/11 09:09:38;;;;;;;9.87;4.70;;;19.20;1.00;;;;;;5084087;28;20203;-74
2022/10/11 09:12:31;;;;;;;12.77;4.23;;;20.10;1.00;;;;;;5088448;28;20433;-75
2022/10/11 09:15:18;;;;;;;22.27;4.80;;;21.40;1.00;;;;;;5081411;28;20414;-74
2022/10/11 09:17:53;;;;;;;18.40;4.90;;;21.90;1.00;;;;;;5088041;28;20433;-77
2022/10/11 09:20:31;;;;;;;18.80;4.90;;;23.10;1.00;;;;;;5086792;28;21003;-73
2022/10/11 09:23:01;;;;;;;7.80;4.23;;;24.30;1.00;;;;;;5086414;28;20477;-75
2022/10/11 09:25:38;;;;;;;12.20;4.50;;;25.30;1.00;;;;;;5079562;28;20430;-77
2022/10/11 09:28:19;;;;;;;11.73;4.20;;;24.90;1.00;;;;;;5080328;28;20471;-75
2022/10/11 09:30:51;;;;;;;11.57;4.27;;;24.70;1.00;;;;;;5086078;28;20457;-74
2022/10/11 09:33:32;;;;;;;11.80;4.23;;;24.00;1.00;;;;;;5088947;28;20578;-73
2022/10/11 09:35:58;;;;;;;10.10;4.83;;;23.40;1.00;;;;;;5081156;28;20444;-73
2022/10/11 09:38:41;;;;;;;9.20;4.13;;;23.20;1.00;;;;;;5081088;28;20963;-76
2022/10/11 09:41:17;;;;;;;11.70;4.40;;;22.90;1.00;;;;;;5079481;28;20701;-73
2022/10/11 09:43:51;;;;;;;14.43;4.27;;;22.80;1.00;;;;;;5087266;28;20975;-73
2022/10/11 09:46:22;;;;;;;12.23;4.30;;;23.00;1.00;;;;;;5085264;28;20421;-73
2022/10/11 09:48:50;;;;;;;9.33;4.03;;;22.40;1.00;;;;;;5081886;28;20801;-75
2022/10/11 09:51:21;;;;;;;14.90;4.70;;;21.90;1.00;;;;;;5084056;28;20433;-74
2022/10/11 09:53:55;;;;;;;7.30;3.93;;;22.00;1.00;;;;;;5081338;28;20909;-73
2022/10/11 09:56:22;;;;;;;11.87;4.70;;;23.50;1.00;;;;;;5079766;28;20432;-76
2022/10/11 09:58:48;;;;;;;13.97;5.00;;;23.70;1.00;;;;;;5089422;28;20947;-74
2022/10/11 10:01:24;;;;;;;12.03;5.33;;;25.00;1.00;;;;;;5088015;28;20497;-74
2022/10/11 10:04:05;;;;;;;9.17;4.80;;;26.50;1.00;;;;;;5085223;28;20435;-74
2022/10/11 10:06:31;;;;;;;9.10;4.70;;;27.30;1.00;;;;;;5089844;28;20864;-75
2022/10/11 10:09:26;;;;;;;11.70;4.83;;;28.30;1.00;;;;;;5086418;28;20460;-75
2022/10/11 10:11:54;;;;;;;9.47;5.20;;;29.00;1.00;;;;;;5092036;28;20252;-78
2022/10/11 10:14:22;;;;;;;11.53;4.40;;;29.70;1.00;;;;;;5091782;28;20250;-77
2022/10/11 10:17:01;;;;;;;7.80;4.45;;;30.60;1.00;;;;;;5090780;28;20542;-75
2022/10/11 10:19:27;;;;;;;9.43;4.72;;;31.40;1.00;;;;;;5087924;28;20557;-74
2022/10/11 10:21:54;;;;;;;11.05;5.05;;;31.50;1.00;;;;;;5084812;28;20257;-77
2022/10/11 10:24:32;;;;;;;7.43;4.88;;;31.70;1.00;;;;;;5093016;28;20638;-75
2022/10/11 10:27:19;;;;;;;15.07;5.03;;;32.50;1.00;;;;;;5088484;28;20195;-74
2022/10/11 10:30:12;;;;;;;13.15;4.80;;;32.50;1.00;;;;;;5090840;28;20220;-74
2022/10/11 10:32:54;;;;;;;8.27;4.60;;;32.20;1.00;;;;;;5085959;28;20778;-74
2022/10/11 10:35:41;;;;;;;8.98;4.60;;;32.10;1.00;;;;;;5085884;28;20221;-76
2022/10/11 10:38:28;;;;;;;9.98;4.75;;;32.40;1.00;;;;;;5074749;28;20551;-77
2022/10/11 10:41:00;;;;;;;10.88;4.35;;;32.70;1.00;;;;;;5085311;28;20664;-75
2022/10/11 10:43:32;;;;;;;10.77;4.50;;;32.90;1.00;;;;;;5085638;28;20188;-75
2022/10/11 10:46:21;;;;;;;10.70;5.07;;;32.90;1.00;;;;;;5081667;28;20199;-75
2022/10/11 10:49:13;;;;;;;7.68;4.53;;;32.90;1.00;;;;;;5089570;28;20246;-76
2022/10/11 10:52:18;;;;;;;8.15;4.38;;;33.30;1.00;;;;;;5087361;28;20262;-75
2022/10/11 10:55:02;;;;;;;11.88;4.50;;;33.10;1.00;;;;;;5081856;28;20178;-74
2022/10/11 10:57:51;;;;;;;9.65;4.22;;;33.30;1.00;;;;;;5082904;28;20183;-76
2022/10/11 11:00:21;;;;;;;12.45;4.57;;;33.80;1.00;;;;;;5085057;28;20191;-76
2022/10/11 11:03:12;;;;;;;7.53;4.05;;;33.30;1.00;;;;;;5090018;28;20633;-76
2022/10/11 11:06:02;;;;;;;6.97;4.35;;;34.00;1.00;;;;;;5096487;28;20522;-76
2022/10/11 11:08:59;;;;;;;9.18;4.63;;;33.50;1.00;;;;;;5082299;28;20208;-75
2022/10/11 11:11:35;;;;;;;7.25;4.70;;;32.70;1.00;;;;;;5081450;28;20186;-77
2022/10/11 11:14:22;;;;;;;7.95;4.13;;;33.10;1.00;;;;;;5083451;28;20198;-77
2022/10/11 11:17:19;;;;;;;12.32;3.90;;;33.10;1.00;;;;;;5086237;28;20183;-77
2022/10/11 11:19:52;;;;;;;11.25;4.10;;;34.10;1.00;;;;;;5082001;28;20252;-76
2022/10/11 11:22:55;;;;;;;10.20;5.03;;;34.00;1.00;;;;;;5087684;28;20182;-76
2022/10/11 11:25:24;;;;;;;9.60;4.07;;;32.40;1.00;;;;;;5093534;28;20203;-75
2022/10/11 11:28:08;;;;;;;7.10;4.15;;;31.50;1.00;;;;;;5087960;28;20700;-76
2022/10/11 11:31:02;;;;;;;8.00;3.92;;;31.50;1.00;;;;;;5087957;28;20245;-77
2022/10/11 11:33:45;;;;;;;14.32;4.43;;;31.80;1.00;;;;;;5085170;28;20167;-77
2022/10/11 11:36:16;;;;;;;8.30;4.55;;;31.80;1.00;;;;;;5085121;28;20167;-76
2022/10/11 11:38:52;;;;;;;8.63;4.25;;;31.90;1.00;;;;;;5083606;28;20658;-75
2022/10/11 11:41:26;;;;;;;8.02;4.60;;;32.00;1.00;;;;;;5091237;28;20181;-75
2022/10/11 11:44:00;;;;;;;9.05;4.70;;;32.10;1.00;;;;;;5088329;28;20191;-75
2022/10/11 11:46:30;;;;;;;9.20;4.10;;;31.70;1.00;;;;;;5086660;28;20669;-75
2022/10/11 11:48:59;;;;;;;8.57;4.25;;;32.30;1.00;;;;;;5087642;28;20207;-75
2022/10/11 11:51:33;;;;;;;10.15;4.50;;;31.80;1.00;;;;;;5086138;28;20175;-76
2022/10/11 11:54:01;;;;;;;10.05;4.57;;;31.80;1.00;;;;;;5073781;28;20194;-78
2022/10/11 11:56:49;;;;;;;9.23;4.20;;;32.30;1.00;;;;;;5082152;28;20550;-78
2022/10/11 11:59:32;;;;;;;8.85;4.20;;;33.30;1.00;;;;;;5071955;28;20188;-81
2022/10/11 12:02:09;;;;;;;11.73;4.43;;;33.80;1.00;;;;;;5077693;28;20778;-76
2022/10/11 12:04:38;;;;;;;8.05;4.15;;;33.50;1.00;;;;;;5087570;28;20300;-76
2022/10/11 12:07:13;;;;;;;6.25;4.07;;;32.30;1.00;;;;;;5088350;28;20565;-76
2022/10/11 12:09:41;;;;;;;9.90;4.15;;;31.60;1.00;;;;;;5088944;28;20190;-77
2022/10/11 12:12:44;;;;;;;8.52;3.90;;;32.10;1.00;;;;;;5088803;28;20180;-77
2022/10/11 12:15:25;;;;;;;7.35;4.18;;;32.90;1.00;;;;;;5062655;28;20191;-75
2022/10/11 12:17:56;;;;;;;10.50;3.90;;;33.70;1.00;;;;;;5081436;28;20208;-75
2022/10/11 12:20:40;;;;;;;7.00;3.97;;;34.50;1.00;;;;;;5091449;28;20747;-79
2022/10/11 12:23:37;;;;;;;6.88;3.80;;;34.50;1.00;;;;;;5078240;28;20194;-75
2022/10/11 12:26:27;;;;;;;8.20;3.88;;;34.50;1.00;;;;;;5079371;28;20192;-78
2022/10/11 12:29:18;;;;;;;6.80;3.90;;;33.10;1.00;;;;;;5087497;28;20206;-76
2022/10/11 12:31:46;;;;;;;7.88;3.80;;;33.00;1.00;;;;;;5090734;28;20244;-76
2022/10/11 12:34:33;;;;;;;8.10;3.40;;;32.60;1.00;;;;;;5087237;28;20175;-76
2022/10/11 12:37:20;;;;;;;11.32;3.45;;;32.80;1.00;;;;;;5087683;28;20183;-75
2022/10/11 12:39:53;;;;;;;9.63;3.00;;;32.80;1.00;;;;;;5088685;28;20574;-77
2022/10/11 12:42:33;;;;;;;11.55;3.60;;;31.90;1.00;;;;;;5086093;28;20179;-75
2022/10/11 12:45:11;;;;;;;11.52;3.42;;;31.50;1.00;;;;;;5081439;28;20265;-75
2022/10/11 12:48:00;;;;;;;11.15;3.70;;;31.40;1.00;;;;;;5089049;28;20669;-76
2022/10/11 12:51:00;;;;;;;6.90;3.30;;;31.90;1.00;;;;;;5089499;28;20187;-75
2022/10/11 12:53:40;;;;;;;6.35;2.75;;;31.50;1.00;;;;;;5083846;28;20255;-77
2022/10/11 12:56:22;;;;;;;7.35;2.95;;;31.30;1.00;;;;;;5080728;28;20257;-76
2022/10/11 12:58:48;;;;;;;7.35;2.97;;;31.80;1.00;;;;;;5076331;28;20188;-76
2022/10/11 13:01:27;;;;;;;7.15;2.88;;;31.30;1.00;;;;;;5083961;28;20163;-75
2022/10/11 13:04:11;;;;;;;6.88;3.17;;;30.70;1.00;;;;;;5080727;28;20176;-76
2022/10/11 13:06:45;;;;;;;6.28;2.80;;;30.50;1.00;;;;;;5074159;28;20179;-75
2022/10/11 13:09:34;;;;;;;7.50;3.20;;;31.20;1.00;;;;;;5087153;28;20604;-76